sensor_id;sensor_type;location;lat;lon;timestamp;pressure;altitude;pressure_sealevel;temperature;humidity
59443;BME280;45247;47.466;19.004;2023-02-19T00:01:54;100002.44;;;10.08;100.00
59443;BME280;45247;47.466;19.004;2023-02-19T00:04:22;99990.13;;;10.08;100.00
59443;BME280;45247;47.466;19.004;2023-02-19T00:06:52;99998.13;;;10.07;100.00
59443;BME280;45247;47.466;19.004;2023-02-19T00:09:20;99997.19;;;10.08;100.00
59443;BME280;45247;47.466;19.004;2023-02-19T00:11:49;99992.84;;;10.07;100.00
59443;BME280;45247;47.466;19.004;2023-02-19T00:14:19;99991.66;;;10.12;100.00
59443;BME280;45247;47.466;19.004;2023-02-19T00:16:48;99989.28;;;10.08;100.00
59443;BME280;45247;47.466;19.004;2023-02-19T00:19:18;99985.78;;;9.91;100.00
59443;BME280;45247;47.466;19.004;2023-02-19T00:21:47;99988.56;;;9.88;100.00
59443;BME280;45247;47.466;19.004;2023-02-19T00:24:18;99987.03;;;9.84;100.00
59443;BME280;45247;47.466;19.004;2023-02-19T00:26:46;99991.56;;;9.82;100.00
59443;BME280;45247;47.466;19.004;2023-02-19T00:29:17;99985.94;;;9.88;100.00
59443;BME280;45247;47.466;19.004;2023-02-19T00:31:46;99980.34;;;9.94;100.00
59443;BME280;45247;47.466;19.004;2023-02-19T00:34:14;99983.47;;;10.01;100.00
59443;BME280;45247;47.466;19.004;2023-02-19T00:36:43;99985.16;;;10.02;100.00
59443;BME280;45247;47.466;19.004;2023-02-19T00:39:13;99977.53;;;9.97;100.00
59443;BME280;45247;47.466;19.004;2023-02-19T00:41:46;99976.16;;;10.06;100.00
59443;BME280;45247;47.466;19.004;2023-02-19T00:44:15;99965.97;;;10.00;100.00
59443;BME280;45247;47.466;19.004;2023-02-19T00:46:45;99962.75;;;9.95;100.00
59443;BME280;45247;47.466;19.004;2023-02-19T00:49:16;99963.59;;;9.95;100.00
59443;BME280;45247;47.466;19.004;2023-02-19T00:51:45;99964.94;;;10.02;100.00
59443;BME280;45247;47.466;19.004;2023-02-19T00:54:14;99968.50;;;10.01;100.00
59443;BME280;45247;47.466;19.004;2023-02-19T00:56:42;99960.31;;;10.06;100.00
59443;BME280;45247;47.466;19.004;2023-02-19T00:59:12;99968.34;;;10.04;100.00
59443;BME280;45247;47.466;19.004;2023-02-19T01:01:41;99977.09;;;10.05;100.00
59443;BME280;45247;47.466;19.004;2023-02-19T01:04:10;99970.03;;;10.06;100.00
59443;BME280;45247;47.466;19.004;2023-02-19T01:06:39;99970.03;;;10.06;100.00
59443;BME280;45247;47.466;19.004;2023-02-19T01:09:09;99969.03;;;10.08;100.00
59443;BME280;45247;47.466;19.004;2023-02-19T01:11:37;99964.44;;;10.12;100.00
59443;BME280;45247;47.466;19.004;2023-02-19T01:14:05;99966.28;;;10.10;100.00
59443;BME280;45247;47.466;19.004;2023-02-19T01:16:35;99962.75;;;10.11;100.00
59443;BME280;45247;47.466;19.004;2023-02-19T01:19:03;99960.69;;;10.16;100.00
59443;BME280;45247;47.466;19.004;2023-02-19T01:21:32;99959.75;;;10.17;100.00
59443;BME280;45247;47.466;19.004;2023-02-19T01:24:00;99959.63;;;10.18;100.00
59443;BME280;45247;47.466;19.004;2023-02-19T01:26:30;99959.56;;;10.20;100.00
59443;BME280;45247;47.466;19.004;2023-02-19T01:29:00;99953.53;;;10.18;100.00
59443;BME280;45247;47.466;19.004;2023-02-19T01:31:28;99954.91;;;10.09;100.00
59443;BME280;45247;47.466;19.004;2023-02-19T01:34:00;99957.31;;;9.98;100.00
59443;BME280;45247;47.466;19.004;2023-02-19T01:36:31;99967.16;;;9.94;100.00
59443;BME280;45247;47.466;19.004;2023-02-19T01:38:59;99972.06;;;9.85;100.00
59443;BME280;45247;47.466;19.004;2023-02-19T01:41:30;99963.56;;;9.79;100.00
59443;BME280;45247;47.466;19.004;2023-02-19T01:44:05;99966.47;;;9.75;100.00
59443;BME280;45247;47.466;19.004;2023-02-19T01:46:35;99968.66;;;9.67;100.00
59443;BME280;45247;47.466;19.004;2023-02-19T01:49:08;99964.34;;;9.66;100.00
59443;BME280;45247;47.466;19.004;2023-02-19T01:51:42;99961.88;;;9.63;100.00
59443;BME280;45247;47.466;19.004;2023-02-19T01:54:12;99952.94;;;9.49;100.00
59443;BME280;45247;47.466;19.004;2023-02-19T01:56:43;99955.75;;;9.46;100.00
59443;BME280;45247;47.466;19.004;2023-02-19T01:59:13;99966.00;;;9.35;100.00
59443;BME280;45247;47.466;19.004;2023-02-19T02:01:44;99963.78;;;9.27;100.00
59443;BME280;45247;47.466;19.004;2023-02-19T02:04:23;99961.53;;;9.20;100.00
59443;BME280;45247;47.466;19.004;2023-02-19T02:06:53;99960.63;;;9.21;100.00
59443;BME280;45247;47.466;19.004;2023-02-19T02:09:24;99952.63;;;9.22;100.00
59443;BME280;45247;47.466;19.004;2023-02-19T02:12:11;99948.66;;;9.31;100.00
59443;BME280;45247;47.466;19.004;2023-02-19T02:14:41;99953.09;;;9.31;100.00
59443;BME280;45247;47.466;19.004;2023-02-19T02:17:17;99964.97;;;9.38;100.00
59443;BME280;45247;47.466;19.004;2023-02-19T02:20:00;99961.19;;;9.43;100.00
59443;BME280;45247;47.466;19.004;2023-02-19T02:22:34;99959.25;;;9.47;100.00
59443;BME280;45247;47.466;19.004;2023-02-19T02:25:19;99952.88;;;9.51;100.00
59443;BME280;45247;47.466;19.004;2023-02-19T02:28:03;99948.75;;;9.45;100.00
59443;BME280;45247;47.466;19.004;2023-02-19T02:30:42;99947.06;;;9.44;100.00
59443;BME280;45247;47.466;19.004;2023-02-19T02:33:20;99939.94;;;9.46;100.00
59443;BME280;45247;47.466;19.004;2023-02-19T02:35:55;99941.66;;;9.47;100.00
59443;BME280;45247;47.466;19.004;2023-02-19T02:38:28;99939.25;;;9.43;100.00
59443;BME280;45247;47.466;19.004;2023-02-19T02:40:58;99949.78;;;9.43;100.00
59443;BME280;45247;47.466;19.004;2023-02-19T02:43:27;99940.25;;;9.40;100.00
59443;BME280;45247;47.466;19.004;2023-02-19T02:45:57;99938.47;;;9.41;100.00
59443;BME280;45247;47.466;19.004;2023-02-19T02:48:29;99923.09;;;9.33;100.00
59443;BME280;45247;47.466;19.004;2023-02-19T02:51:05;99946.31;;;9.42;100.00
59443;BME280;45247;47.466;19.004;2023-02-19T02:53:39;99945.69;;;9.37;100.00
59443;BME280;45247;47.466;19.004;2023-02-19T02:56:26;99939.56;;;9.37;100.00
59443;BME280;45247;47.466;19.004;2023-02-19T02:58:55;99953.69;;;9.36;100.00
59443;BME280;45247;47.466;19.004;2023-02-19T03:01:28;99955.03;;;9.27;100.00
59443;BME280;45247;47.466;19.004;2023-02-19T03:04:20;99951.78;;;9.22;100.00
59443;BME280;45247;47.466;19.004;2023-02-19T03:06:51;99946.44;;;9.23;100.00
59443;BME280;45247;47.466;19.004;2023-02-19T03:09:23;99938.69;;;9.20;100.00
59443;BME280;45247;47.466;19.004;2023-02-19T03:11:57;99936.00;;;9.22;100.00
59443;BME280;45247;47.466;19.004;2023-02-19T03:14:47;99946.13;;;9.30;100.00
59443;BME280;45247;47.466;19.004;2023-02-19T03:17:39;99953.16;;;9.29;100.00
59443;BME280;45247;47.466;19.004;2023-02-19T03:20:26;99948.81;;;9.28;100.00
59443;BME280;45247;47.466;19.004;2023-02-19T03:22:56;99949.66;;;9.28;100.00
59443;BME280;45247;47.466;19.004;2023-02-19T03:25:29;99955.53;;;9.18;100.00
59443;BME280;45247;47.466;19.004;2023-02-19T03:28:17;99959.63;;;9.06;100.00
59443;BME280;45247;47.466;19.004;2023-02-19T03:31:08;99956.53;;;9.15;100.00
59443;BME280;45247;47.466;19.004;2023-02-19T03:33:41;99957.78;;;9.08;100.00
59443;BME280;45247;47.466;19.004;2023-02-19T03:36:12;99931.69;;;9.03;100.00
59443;BME280;45247;47.466;19.004;2023-02-19T03:38:45;99949.34;;;9.01;100.00
59443;BME280;45247;47.466;19.004;2023-02-19T03:41:22;99947.97;;;8.94;100.00
59443;BME280;45247;47.466;19.004;2023-02-19T03:44:04;99954.41;;;8.89;100.00
59443;BME280;45247;47.466;19.004;2023-02-19T03:46:41;99955.41;;;8.86;100.00
59443;BME280;45247;47.466;19.004;2023-02-19T03:49:20;99945.34;;;8.77;100.00
59443;BME280;45247;47.466;19.004;2023-02-19T03:51:53;99947.69;;;8.66;100.00
59443;BME280;45247;47.466;19.004;2023-02-19T03:54:33;99938.72;;;8.70;100.00
59443;BME280;45247;47.466;19.004;2023-02-19T03:57:04;99933.16;;;8.59;100.00
59443;BME280;45247;47.466;19.004;2023-02-19T03:59:39;99935.44;;;8.47;100.00
59443;BME280;45247;47.466;19.004;2023-02-19T04:02:10;99941.59;;;8.48;100.00
59443;BME280;45247;47.466;19.004;2023-02-19T04:04:44;99940.09;;;8.42;100.00
59443;BME280;45247;47.466;19.004;2023-02-19T04:07:14;99941.88;;;8.42;100.00
59443;BME280;45247;47.466;19.004;2023-02-19T04:09:46;99949.88;;;8.58;100.00
59443;BME280;45247;47.466;19.004;2023-02-19T04:12:15;99948.69;;;8.63;100.00
59443;BME280;45247;47.466;19.004;2023-02-19T04:14:48;99966.16;;;8.64;100.00
59443;BME280;45247;47.466;19.004;2023-02-19T04:17:23;99940.66;;;8.66;100.00
59443;BME280;45247;47.466;19.004;2023-02-19T04:19:55;99962.00;;;8.60;100.00
59443;BME280;45247;47.466;19.004;2023-02-19T04:22:26;99947.84;;;8.63;100.00
59443;BME280;45247;47.466;19.004;2023-02-19T04:24:54;99955.28;;;8.55;100.00
59443;BME280;45247;47.466;19.004;2023-02-19T04:27:23;99952.63;;;8.55;100.00
59443;BME280;45247;47.466;19.004;2023-02-19T04:29:51;99956.03;;;8.39;100.00
59443;BME280;45247;47.466;19.004;2023-02-19T04:32:22;99956.97;;;8.38;100.00
59443;BME280;45247;47.466;19.004;2023-02-19T04:34:50;99951.38;;;8.27;100.00
59443;BME280;45247;47.466;19.004;2023-02-19T04:37:21;99957.34;;;8.12;100.00
59443;BME280;45247;47.466;19.004;2023-02-19T04:39:49;99948.44;;;7.97;100.00
59443;BME280;45247;47.466;19.004;2023-02-19T04:42:18;99958.53;;;7.87;100.00
59443;BME280;45247;47.466;19.004;2023-02-19T04:44:46;99963.16;;;7.82;100.00
59443;BME280;45247;47.466;19.004;2023-02-19T04:47:14;99961.25;;;7.67;100.00
59443;BME280;45247;47.466;19.004;2023-02-19T04:49:43;99969.50;;;7.59;100.00
59443;BME280;45247;47.466;19.004;2023-02-19T04:52:12;99965.56;;;7.49;100.00
59443;BME280;45247;47.466;19.004;2023-02-19T04:54:41;99964.88;;;7.45;100.00
59443;BME280;45247;47.466;19.004;2023-02-19T04:57:10;99965.50;;;7.50;100.00
59443;BME280;45247;47.466;19.004;2023-02-19T04:59:38;99958.81;;;7.43;100.00
59443;BME280;45247;47.466;19.004;2023-02-19T05:02:06;99952.00;;;7.39;100.00
59443;BME280;45247;47.466;19.004;2023-02-19T05:04:34;99955.56;;;7.38;100.00
59443;BME280;45247;47.466;19.004;2023-02-19T05:07:03;99960.09;;;7.35;100.00
59443;BME280;45247;47.466;19.004;2023-02-19T05:09:31;99955.69;;;7.35;100.00
59443;BME280;45247;47.466;19.004;2023-02-19T05:12:00;99960.81;;;7.38;100.00
59443;BME280;45247;47.466;19.004;2023-02-19T05:14:29;99956.28;;;7.42;100.00
59443;BME280;45247;47.466;19.004;2023-02-19T05:16:57;99949.16;;;7.44;100.00
59443;BME280;45247;47.466;19.004;2023-02-19T05:19:25;99956.69;;;7.51;100.00
59443;BME280;45247;47.466;19.004;2023-02-19T05:21:53;99959.13;;;7.56;100.00
59443;BME280;45247;47.466;19.004;2023-02-19T05:24:21;99962.47;;;7.60;100.00
59443;BME280;45247;47.466;19.004;2023-02-19T05:26:50;99952.72;;;7.62;100.00
59443;BME280;45247;47.466;19.004;2023-02-19T05:29:20;99956.00;;;7.67;100.00
59443;BME280;45247;47.466;19.004;2023-02-19T05:31:48;99949.88;;;7.66;100.00
59443;BME280;45247;47.466;19.004;2023-02-19T05:34:17;99943.63;;;7.69;100.00
59443;BME280;45247;47.466;19.004;2023-02-19T05:36:45;99938.69;;;7.63;100.00
59443;BME280;45247;47.466;19.004;2023-02-19T05:39:13;99941.22;;;7.64;100.00
59443;BME280;45247;47.466;19.004;2023-02-19T05:41:41;99936.97;;;7.62;100.00
59443;BME280;45247;47.466;19.004;2023-02-19T05:44:10;99936.31;;;7.57;100.00
59443;BME280;45247;47.466;19.004;2023-02-19T05:46:40;99938.19;;;7.55;100.00
59443;BME280;45247;47.466;19.004;2023-02-19T05:49:08;99952.22;;;7.53;100.00
59443;BME280;45247;47.466;19.004;2023-02-19T05:51:36;99960.09;;;7.53;100.00
59443;BME280;45247;47.466;19.004;2023-02-19T05:54:04;99965.34;;;7.53;100.00
59443;BME280;45247;47.466;19.004;2023-02-19T05:56:35;99961.81;;;7.55;100.00
59443;BME280;45247;47.466;19.004;2023-02-19T05:59:05;99961.03;;;7.52;100.00
59443;BME280;45247;47.466;19.004;2023-02-19T06:01:34;99964.59;;;7.51;100.00
59443;BME280;45247;47.466;19.004;2023-02-19T06:04:04;99972.47;;;7.51;100.00
59443;BME280;45247;47.466;19.004;2023-02-19T06:06:32;99954.84;;;7.53;100.00
59443;BME280;45247;47.466;19.004;2023-02-19T06:09:00;99957.34;;;7.57;100.00
59443;BME280;45247;47.466;19.004;2023-02-19T06:11:29;99969.50;;;7.59;100.00
59443;BME280;45247;47.466;19.004;2023-02-19T06:13:57;99961.66;;;7.58;100.00
59443;BME280;45247;47.466;19.004;2023-02-19T06:16:26;99962.38;;;7.61;100.00
59443;BME280;45247;47.466;19.004;2023-02-19T06:18:54;99967.50;;;7.64;100.00
59443;BME280;45247;47.466;19.004;2023-02-19T06:21:23;99953.28;;;7.68;100.00
59443;BME280;45247;47.466;19.004;2023-02-19T06:23:52;99948.03;;;7.68;100.00
59443;BME280;45247;47.466;19.004;2023-02-19T06:26:22;99944.44;;;7.71;100.00
59443;BME280;45247;47.466;19.004;2023-02-19T06:28:51;99948.88;;;7.69;100.00
59443;BME280;45247;47.466;19.004;2023-02-19T06:31:21;99946.19;;;7.70;100.00
59443;BME280;45247;47.466;19.004;2023-02-19T06:33:50;99936.38;;;7.74;100.00
59443;BME280;45247;47.466;19.004;2023-02-19T06:36:19;99931.97;;;7.74;100.00
59443;BME280;45247;47.466;19.004;2023-02-19T06:38:49;99933.84;;;7.72;100.00
59443;BME280;45247;47.466;19.004;2023-02-19T06:41:18;99927.56;;;7.75;100.00
59443;BME280;45247;47.466;19.004;2023-02-19T06:43:46;99921.84;;;7.67;100.00
59443;BME280;45247;47.466;19.004;2023-02-19T06:46:15;99927.88;;;7.69;100.00
59443;BME280;45247;47.466;19.004;2023-02-19T06:48:44;99921.06;;;7.65;100.00
59443;BME280;45247;47.466;19.004;2023-02-19T06:51:14;99937.81;;;7.62;100.00
59443;BME280;45247;47.466;19.004;2023-02-19T06:53:44;99936.81;;;7.65;100.00
59443;BME280;45247;47.466;19.004;2023-02-19T06:56:23;99940.38;;;7.64;100.00
59443;BME280;45247;47.466;19.004;2023-02-19T06:58:52;99931.56;;;7.65;100.00
59443;BME280;45247;47.466;19.004;2023-02-19T07:01:20;99935.25;;;7.61;100.00
59443;BME280;45247;47.466;19.004;2023-02-19T07:03:49;99929.25;;;7.59;100.00
59443;BME280;45247;47.466;19.004;2023-02-19T07:06:18;99931.69;;;7.62;100.00
59443;BME280;45247;47.466;19.004;2023-02-19T07:08:46;99938.53;;;7.66;100.00
59443;BME280;45247;47.466;19.004;2023-02-19T07:11:15;99942.72;;;7.70;100.00
59443;BME280;45247;47.466;19.004;2023-02-19T07:13:46;99951.44;;;7.70;100.00
59443;BME280;45247;47.466;19.004;2023-02-19T07:16:14;99951.25;;;7.56;100.00
59443;BME280;45247;47.466;19.004;2023-02-19T07:18:43;99942.16;;;7.63;100.00
59443;BME280;45247;47.466;19.004;2023-02-19T07:21:13;99939.09;;;7.72;100.00
59443;BME280;45247;47.466;19.004;2023-02-19T07:23:42;99945.91;;;7.76;100.00
59443;BME280;45247;47.466;19.004;2023-02-19T07:26:13;99941.28;;;7.82;100.00
59443;BME280;45247;47.466;19.004;2023-02-19T07:28:43;99942.63;;;7.90;100.00
59443;BME280;45247;47.466;19.004;2023-02-19T07:31:13;99931.13;;;7.93;100.00
59443;BME280;45247;47.466;19.004;2023-02-19T07:33:43;99937.38;;;7.90;100.00
59443;BME280;45247;47.466;19.004;2023-02-19T07:36:14;99923.00;;;7.97;100.00
59443;BME280;45247;47.466;19.004;2023-02-19T07:38:42;99921.00;;;8.02;100.00
59443;BME280;45247;47.466;19.004;2023-02-19T07:41:11;99917.00;;;8.13;100.00
59443;BME280;45247;47.466;19.004;2023-02-19T07:43:40;99913.28;;;8.17;100.00
59443;BME280;45247;47.466;19.004;2023-02-19T07:46:10;99898.13;;;8.22;100.00
59443;BME280;45247;47.466;19.004;2023-02-19T07:48:41;99917.84;;;8.31;100.00
59443;BME280;45247;47.466;19.004;2023-02-19T07:51:11;99908.97;;;8.33;100.00
59443;BME280;45247;47.466;19.004;2023-02-19T07:53:42;99937.22;;;8.47;100.00
59443;BME280;45247;47.466;19.004;2023-02-19T07:56:11;99934.22;;;8.55;100.00
59443;BME280;45247;47.466;19.004;2023-02-19T07:58:40;99923.56;;;8.58;100.00
59443;BME280;45247;47.466;19.004;2023-02-19T08:01:10;99934.38;;;8.69;100.00
59443;BME280;45247;47.466;19.004;2023-02-19T08:03:42;99942.56;;;8.80;100.00
59443;BME280;45247;47.466;19.004;2023-02-19T08:06:10;99950.91;;;8.88;100.00
59443;BME280;45247;47.466;19.004;2023-02-19T08:08:39;99953.41;;;8.91;100.00
59443;BME280;45247;47.466;19.004;2023-02-19T08:11:08;99953.56;;;8.88;100.00
59443;BME280;45247;47.466;19.004;2023-02-19T08:13:54;99962.28;;;8.89;100.00
59443;BME280;45247;47.466;19.004;2023-02-19T08:16:23;99958.84;;;8.71;100.00
59443;BME280;45247;47.466;19.004;2023-02-19T08:19:09;99965.28;;;8.65;100.00
59443;BME280;45247;47.466;19.004;2023-02-19T08:21:38;99962.94;;;8.59;100.00
59443;BME280;45247;47.466;19.004;2023-02-19T08:24:06;99963.47;;;8.66;100.00
59443;BME280;45247;47.466;19.004;2023-02-19T08:26:34;99962.41;;;8.70;100.00
59443;BME280;45247;47.466;19.004;2023-02-19T08:29:03;99971.13;;;8.70;100.00
59443;BME280;45247;47.466;19.004;2023-02-19T08:31:32;99958.03;;;8.69;100.00
59443;BME280;45247;47.466;19.004;2023-02-19T08:34:01;99958.03;;;8.69;100.00
59443;BME280;45247;47.466;19.004;2023-02-19T08:36:31;99945.34;;;8.77;100.00
59443;BME280;45247;47.466;19.004;2023-02-19T08:38:59;99958.97;;;8.85;100.00
59443;BME280;45247;47.466;19.004;2023-02-19T08:41:28;99954.63;;;9.01;100.00
59443;BME280;45247;47.466;19.004;2023-02-19T08:43:56;99947.63;;;9.18;100.00
59443;BME280;45247;47.466;19.004;2023-02-19T08:46:24;99957.25;;;9.35;100.00
59443;BME280;45247;47.466;19.004;2023-02-19T08:48:52;99955.31;;;9.38;100.00
59443;BME280;45247;47.466;19.004;2023-02-19T08:51:21;99952.84;;;9.35;100.00
59443;BME280;45247;47.466;19.004;2023-02-19T08:53:50;99952.69;;;9.38;100.00
59443;BME280;45247;47.466;19.004;2023-02-19T08:56:19;99948.44;;;9.51;100.00
59443;BME280;45247;47.466;19.004;2023-02-19T08:58:47;99951.16;;;9.66;100.00
59443;BME280;45247;47.466;19.004;2023-02-19T09:01:17;99953.22;;;9.76;100.00
59443;BME280;45247;47.466;19.004;2023-02-19T09:03:45;99957.78;;;9.89;100.00
59443;BME280;45247;47.466;19.004;2023-02-19T09:06:15;99945.56;;;10.03;100.00
59443;BME280;45247;47.466;19.004;2023-02-19T09:08:46;99950.47;;;10.10;100.00
59443;BME280;45247;47.466;19.004;2023-02-19T09:11:15;99962.56;;;9.82;100.00
59443;BME280;45247;47.466;19.004;2023-02-19T09:13:44;99946.41;;;9.57;100.00
59443;BME280;45247;47.466;19.004;2023-02-19T09:16:12;99946.06;;;9.63;100.00
59443;BME280;45247;47.466;19.004;2023-02-19T09:18:40;99962.38;;;9.53;100.00
59443;BME280;45247;47.466;19.004;2023-02-19T09:21:11;99952.50;;;9.41;100.00
59443;BME280;45247;47.466;19.004;2023-02-19T09:23:39;99958.75;;;9.23;100.00
59443;BME280;45247;47.466;19.004;2023-02-19T09:26:08;99957.56;;;9.13;100.00
59443;BME280;45247;47.466;19.004;2023-02-19T09:28:38;99958.34;;;8.97;100.00
59443;BME280;45247;47.466;19.004;2023-02-19T09:31:09;99958.00;;;9.03;100.00
59443;BME280;45247;47.466;19.004;2023-02-19T09:33:41;99950.56;;;9.12;100.00
59443;BME280;45247;47.466;19.004;2023-02-19T09:36:10;99950.75;;;9.24;100.00
59443;BME280;45247;47.466;19.004;2023-02-19T09:38:39;99934.72;;;9.29;100.00
59443;BME280;45247;47.466;19.004;2023-02-19T09:41:11;99936.78;;;9.40;100.00
59443;BME280;45247;47.466;19.004;2023-02-19T09:43:43;99940.41;;;9.37;100.00
59443;BME280;45247;47.466;19.004;2023-02-19T09:46:22;99937.72;;;9.54;100.00
59443;BME280;45247;47.466;19.004;2023-02-19T09:48:52;99938.09;;;9.64;100.00
59443;BME280;45247;47.466;19.004;2023-02-19T09:51:24;99935.34;;;9.66;100.00
59443;BME280;45247;47.466;19.004;2023-02-19T09:53:56;99936.38;;;9.79;100.00
59443;BME280;45247;47.466;19.004;2023-02-19T09:56:29;99943.28;;;9.82;100.00
59443;BME280;45247;47.466;19.004;2023-02-19T09:59:00;99935.38;;;9.82;100.00
59443;BME280;45247;47.466;19.004;2023-02-19T10:01:32;99931.00;;;9.96;100.00
59443;BME280;45247;47.466;19.004;2023-02-19T10:04:03;99922.56;;;10.06;100.00
59443;BME280;45247;47.466;19.004;2023-02-19T10:06:31;99921.72;;;10.05;100.00
59443;BME280;45247;47.466;19.004;2023-02-19T10:09:14;99922.13;;;10.13;100.00
59443;BME280;45247;47.466;19.004;2023-02-19T10:11:44;99921.78;;;10.35;100.00
59443;BME280;45247;47.466;19.004;2023-02-19T10:14:17;99898.03;;;10.35;100.00
59443;BME280;45247;47.466;19.004;2023-02-19T10:16:49;99891.59;;;10.69;100.00
59443;BME280;45247;47.466;19.004;2023-02-19T10:19:18;99893.22;;;10.86;100.00
59443;BME280;45247;47.466;19.004;2023-02-19T10:21:46;99886.81;;;11.04;100.00
59443;BME280;45247;47.466;19.004;2023-02-19T10:24:22;99881.53;;;11.19;100.00
59443;BME280;45247;47.466;19.004;2023-02-19T10:26:52;99882.84;;;11.40;100.00
59443;BME280;45247;47.466;19.004;2023-02-19T10:29:22;99880.03;;;11.70;100.00
59443;BME280;45247;47.466;19.004;2023-02-19T10:32:13;99870.59;;;12.08;100.00
59443;BME280;45247;47.466;19.004;2023-02-19T10:34:43;99865.38;;;12.06;100.00
59443;BME280;45247;47.466;19.004;2023-02-19T10:37:14;99864.22;;;12.10;100.00
59443;BME280;45247;47.466;19.004;2023-02-19T10:39:44;99853.22;;;12.03;100.00
59443;BME280;45247;47.466;19.004;2023-02-19T10:42:16;99841.69;;;12.05;100.00
59443;BME280;45247;47.466;19.004;2023-02-19T10:44:49;99845.72;;;12.23;100.00
59443;BME280;45247;47.466;19.004;2023-02-19T10:47:21;99835.31;;;12.07;100.00
59443;BME280;45247;47.466;19.004;2023-02-19T10:49:52;99832.78;;;12.06;100.00
59443;BME280;45247;47.466;19.004;2023-02-19T10:52:26;99822.00;;;12.09;100.00
59443;BME280;45247;47.466;19.004;2023-02-19T10:54:57;99823.41;;;12.14;100.00
59443;BME280;45247;47.466;19.004;2023-02-19T10:57:42;99824.56;;;12.23;100.00
59443;BME280;45247;47.466;19.004;2023-02-19T11:00:22;99817.50;;;12.36;100.00
59443;BME280;45247;47.466;19.004;2023-02-19T11:03:19;99800.91;;;12.47;100.00
59443;BME280;45247;47.466;19.004;2023-02-19T11:05:52;99813.16;;;12.61;100.00
59443;BME280;45247;47.466;19.004;2023-02-19T11:08:23;99785.41;;;12.66;100.00
59443;BME280;45247;47.466;19.004;2023-02-19T11:10:52;99794.09;;;12.81;100.00
59443;BME280;45247;47.466;19.004;2023-02-19T11:13:26;99787.69;;;12.96;100.00
59443;BME280;45247;47.466;19.004;2023-02-19T11:15:58;99783.88;;;13.00;100.00
59443;BME280;45247;47.466;19.004;2023-02-19T11:18:29;99798.25;;;13.09;100.00
59443;BME280;45247;47.466;19.004;2023-02-19T11:21:00;99801.00;;;13.33;100.00
59443;BME280;45247;47.466;19.004;2023-02-19T11:23:32;99783.78;;;13.39;100.00
59443;BME280;45247;47.466;19.004;2023-02-19T11:26:04;99793.84;;;12.84;100.00
59443;BME280;45247;47.466;19.004;2023-02-19T11:28:36;99787.97;;;12.68;100.00
59443;BME280;45247;47.466;19.004;2023-02-19T11:31:20;99783.50;;;12.81;100.00
59443;BME280;45247;47.466;19.004;2023-02-19T11:33:55;99778.78;;;12.97;100.00
59443;BME280;45247;47.466;19.004;2023-02-19T11:36:29;99763.25;;;12.80;100.00
59443;BME280;45247;47.466;19.004;2023-02-19T11:39:06;99753.81;;;12.89;100.00
59443;BME280;45247;47.466;19.004;2023-02-19T11:41:56;99742.97;;;13.04;100.00
59443;BME280;45247;47.466;19.004;2023-02-19T11:44:38;99713.88;;;12.92;100.00
59443;BME280;45247;47.466;19.004;2023-02-19T11:47:31;99739.28;;;12.94;100.00
59443;BME280;45247;47.466;19.004;2023-02-19T11:50:14;99722.63;;;13.05;100.00
59443;BME280;45247;47.466;19.004;2023-02-19T11:52:56;99727.88;;;13.18;100.00
59443;BME280;45247;47.466;19.004;2023-02-19T11:55:36;99731.06;;;13.23;100.00
59443;BME280;45247;47.466;19.004;2023-02-19T11:58:36;99735.69;;;13.32;100.00
59443;BME280;45247;47.466;19.004;2023-02-19T12:01:14;99688.88;;;13.20;100.00
59443;BME280;45247;47.466;19.004;2023-02-19T12:04:06;99690.13;;;13.27;100.00
59443;BME280;45247;47.466;19.004;2023-02-19T12:06:51;99710.06;;;13.20;100.00
59443;BME280;45247;47.466;19.004;2023-02-19T12:09:36;99692.84;;;13.38;100.00
59443;BME280;45247;47.466;19.004;2023-02-19T12:12:28;99687.25;;;13.30;100.00
59443;BME280;45247;47.466;19.004;2023-02-19T12:15:17;99680.03;;;13.32;100.00
59443;BME280;45247;47.466;19.004;2023-02-19T12:18:07;99672.81;;;13.34;100.00
59443;BME280;45247;47.466;19.004;2023-02-19T12:20:50;99679.63;;;13.49;100.00
59443;BME280;45247;47.466;19.004;2023-02-19T12:23:45;99682.31;;;13.61;100.00
59443;BME280;45247;47.466;19.004;2023-02-19T12:26:22;99674.69;;;13.45;100.00
59443;BME280;45247;47.466;19.004;2023-02-19T12:29:04;99673.00;;;13.55;100.00
59443;BME280;45247;47.466;19.004;2023-02-19T12:31:59;99687.84;;;13.58;100.00
59443;BME280;45247;47.466;19.004;2023-02-19T12:34:35;99661.84;;;13.74;100.00
59443;BME280;45247;47.466;19.004;2023-02-19T12:37:25;99683.56;;;13.79;100.00
59443;BME280;45247;47.466;19.004;2023-02-19T12:40:15;99677.53;;;13.77;100.00
59443;BME280;45247;47.466;19.004;2023-02-19T12:42:53;99669.44;;;13.67;100.00
59443;BME280;45247;47.466;19.004;2023-02-19T12:45:30;99675.09;;;13.63;100.00
59443;BME280;45247;47.466;19.004;2023-02-19T12:48:05;99689.47;;;13.83;100.00
59443;BME280;45247;47.466;19.004;2023-02-19T12:50:39;99685.00;;;13.72;100.00
59443;BME280;45247;47.466;19.004;2023-02-19T12:53:17;99714.88;;;13.74;100.00
59443;BME280;45247;47.466;19.004;2023-02-19T12:55:48;99726.34;;;13.74;100.00
59443;BME280;45247;47.466;19.004;2023-02-19T12:58:23;99723.63;;;13.98;100.00
59443;BME280;45247;47.466;19.004;2023-02-19T13:00:55;99713.06;;;14.21;100.00
59443;BME280;45247;47.466;19.004;2023-02-19T13:03:29;99704.44;;;14.52;100.00
59443;BME280;45247;47.466;19.004;2023-02-19T13:06:04;99709.94;;;14.38;100.00
59443;BME280;45247;47.466;19.004;2023-02-19T13:08:41;99713.91;;;14.33;100.00
59443;BME280;45247;47.466;19.004;2023-02-19T13:11:32;99698.84;;;14.33;100.00
59443;BME280;45247;47.466;19.004;2023-02-19T13:14:05;99696.19;;;14.33;100.00
59443;BME280;45247;47.466;19.004;2023-02-19T13:16:43;99695.78;;;14.04;100.00